Wetterdaten: Woche 06.04.09 - 12.04.09 (KW15)
Datum Zeit Temp. Innen Temp. Aussen Feuchte Inne Feuchte Auss Luftdruck Regen ab 0,1 Wind
06.04.2009 00:00 19,5 C 8,3 C 50 % 78 % 1019,9 hPa 0,0 l/m 0,0 km/h (0 Bft)
06.04.2009 01:00 19,4 C 7,9 C 50 % 79 % 1019,5 hPa 0,0 l/m 0,0 km/h (0 Bft)
06.04.2009 02:00 19,4 C 8,0 C 50 % 80 % 1018,7 hPa 0,0 l/m 0,0 km/h (0 Bft)
06.04.2009 03:00 19,3 C 7,7 C 50 % 81 % 1018,4 hPa 0,0 l/m 0,0 km/h (0 Bft)
06.04.2009 04:00 19,2 C 6,9 C 50 % 82 % 1017,8 hPa 0,0 l/m 0,0 km/h (0 Bft)
06.04.2009 05:00 19,1 C 6,2 C 49 % 82 % 1017,3 hPa 0,0 l/m 0,0 km/h (0 Bft)
06.04.2009 06:00 19,0 C 5,6 C 49 % 82 % 1016,5 hPa 0,0 l/m 0,0 km/h (0 Bft)
06.04.2009 07:00 19,1 C 5,3 C 49 % 83 % 1016,5 hPa 0,0 l/m 0,0 km/h (0 Bft)
06.04.2009 08:00 19,0 C 6,3 C 49 % 84 % 1016,5 hPa 0,0 l/m 0,0 km/h (0 Bft)
06.04.2009 09:00 19,0 C 8,3 C 50 % 85 % 1016,4 hPa 0,0 l/m 0,2 km/h (0 Bft)
06.04.2009 10:00 19,0 C 10,4 C 50 % 86 % 1015,6 hPa 0,0 l/m 1,7 km/h (1 Bft)
06.04.2009 11:00 19,0 C 14,0 C 50 % 79 % 1015,3 hPa 0,0 l/m 2,9 km/h (1 Bft)
06.04.2009 12:00 19,1 C 17,0 C 51 % 70 % 1014,4 hPa 0,0 l/m 5,6 km/h (1 Bft)
06.04.2009 13:00 19,2 C 19,7 C 51 % 61 % 1013,4 hPa 0,0 l/m 3,2 km/h (1 Bft)
06.04.2009 14:00 19,4 C 21,3 C 51 % 54 % 1012,2 hPa 0,0 l/m 0,2 km/h (0 Bft)
06.04.2009 15:00 19,7 C 22,4 C 50 % 46 % 1011,1 hPa 0,0 l/m 1,1 km/h (0 Bft)
06.04.2009 16:00 19,8 C 21,6 C 49 % 46 % 1010,2 hPa 0,0 l/m 3,6 km/h (1 Bft)
06.04.2009 17:00 19,9 C 21,2 C 49 % 47 % 1009,3 hPa 0,0 l/m 0,2 km/h (0 Bft)
06.04.2009 18:00 20,0 C 20,5 C 49 % 49 % 1008,7 hPa 0,0 l/m 1,1 km/h (1 Bft)
06.04.2009 19:00 20,1 C 19,6 C 49 % 51 % 1008,2 hPa 0,0 l/m 0,0 km/h (0 Bft)
06.04.2009 20:00 20,2 C 18,0 C 49 % 55 % 1008,3 hPa 0,0 l/m 0,1 km/h (0 Bft)
06.04.2009 21:00 20,2 C 16,5 C 49 % 57 % 1008,3 hPa 0,0 l/m 0,0 km/h (0 Bft)
06.04.2009 22:00 20,2 C 15,0 C 49 % 61 % 1008,3 hPa 0,0 l/m 0,0 km/h (0 Bft)
06.04.2009 23:00 20,2 C 13,5 C 49 % 65 % 1008,3 hPa 0,0 l/m 0,0 km/h (0 Bft)
07.04.2009 00:00 20,2 C 13,0 C 49 % 67 % 1008,0 hPa 0,0 l/m 0,0 km/h (0 Bft)
07.04.2009 01:00 20,1 C 12,6 C 49 % 69 % 1007,3 hPa 0,0 l/m 0,0 km/h (0 Bft)
07.04.2009 02:00 20,0 C 12,0 C 49 % 71 % 1007,3 hPa 0,0 l/m 0,0 km/h (0 Bft)
07.04.2009 03:00 20,0 C 11,6 C 49 % 73 % 1006,6 hPa 0,0 l/m 0,0 km/h (0 Bft)
07.04.2009 04:00 19,9 C 11,1 C 49 % 73 % 1006,3 hPa 0,0 l/m 0,0 km/h (0 Bft)
07.04.2009 05:00 19,8 C 10,4 C 49 % 75 % 1006,4 hPa 0,0 l/m 0,0 km/h (0 Bft)
07.04.2009 06:00 19,7 C 10,3 C 49 % 76 % 1006,4 hPa 0,0 l/m 0,0 km/h (0 Bft)
07.04.2009 07:00 19,8 C 10,7 C 49 % 77 % 1006,3 hPa 0,0 l/m 0,0 km/h (0 Bft)
07.04.2009 08:00 19,8 C 11,2 C 49 % 77 % 1006,4 hPa 0,0 l/m 0,2 km/h (0 Bft)
07.04.2009 09:00 19,8 C 13,1 C 50 % 74 % 1007,2 hPa 0,0 l/m 1,4 km/h (1 Bft)
07.04.2009 10:00 19,8 C 15,6 C 49 % 62 % 1007,3 hPa 0,0 l/m 5,3 km/h (1 Bft)
07.04.2009 11:00 19,8 C 16,3 C 49 % 60 % 1008,3 hPa 0,0 l/m 1,0 km/h (0 Bft)
07.04.2009 12:00 19,8 C 17,2 C 49 % 61 % 1008,5 hPa 0,0 l/m 6,6 km/h (2 Bft)
07.04.2009 13:00 19,9 C 17,4 C 50 % 60 % 1009,3 hPa 0,0 l/m 2,0 km/h (1 Bft)
07.04.2009 14:00 19,9 C 16,7 C 50 % 62 % 1009,3 hPa 0,0 l/m 3,3 km/h (1 Bft)
07.04.2009 15:00 20,0 C 16,5 C 50 % 62 % 1009,5 hPa 0,0 l/m 1,5 km/h (1 Bft)
07.04.2009 16:00 20,0 C 15,2 C 50 % 65 % 1010,3 hPa 0,0 l/m 1,3 km/h (1 Bft)
07.04.2009 17:00 20,0 C 14,6 C 50 % 68 % 1010,3 hPa 0,0 l/m 0,5 km/h (0 Bft)
07.04.2009 18:00 20,0 C 13,8 C 50 % 69 % 1010,3 hPa 0,0 l/m 0,6 km/h (0 Bft)
07.04.2009 19:00 20,0 C 13,0 C 50 % 69 % 1011,0 hPa 0,0 l/m 0,0 km/h (0 Bft)
07.04.2009 20:00 20,0 C 12,7 C 50 % 71 % 1011,3 hPa 0,0 l/m 0,0 km/h (0 Bft)
07.04.2009 21:00 20,1 C 12,3 C 50 % 72 % 1012,0 hPa 0,0 l/m 0,1 km/h (0 Bft)
07.04.2009 22:00 20,0 C 11,4 C 50 % 74 % 1013,1 hPa 0,0 l/m 1,0 km/h (0 Bft)
07.04.2009 23:00 20,0 C 10,9 C 50 % 77 % 1013,4 hPa 0,0 l/m 0,0 km/h (0 Bft)
08.04.2009 00:00 19,9 C 10,8 C 50 % 79 % 1013,2 hPa 0,0 l/m 0,0 km/h (0 Bft)
08.04.2009 01:00 19,8 C 10,6 C 50 % 79 % 1012,4 hPa 0,0 l/m 0,2 km/h (0 Bft)
08.04.2009 02:00 19,7 C 10,4 C 50 % 80 % 1012,4 hPa 0,0 l/m 0,1 km/h (0 Bft)
08.04.2009 03:00 19,6 C 10,2 C 50 % 79 % 1012,4 hPa 0,0 l/m 0,0 km/h (0 Bft)
08.04.2009 04:00 19,6 C 9,5 C 50 % 79 % 1012,1 hPa 0,0 l/m 0,0 km/h (0 Bft)
08.04.2009 05:00 19,5 C 8,6 C 50 % 81 % 1011,4 hPa 0,0 l/m 0,0 km/h (0 Bft)
08.04.2009 06:00 19,5 C 8,0 C 50 % 82 % 1011,4 hPa 0,0 l/m 0,0 km/h (0 Bft)
08.04.2009 07:00 19,5 C 7,8 C 49 % 83 % 1011,4 hPa 0,0 l/m 0,0 km/h (0 Bft)
08.04.2009 08:00 19,3 C 9,0 C 49 % 82 % 1011,4 hPa 0,0 l/m 0,8 km/h (0 Bft)
08.04.2009 09:00 19,2 C 11,1 C 48 % 74 % 1011,4 hPa 0,0 l/m 3,3 km/h (1 Bft)
08.04.2009 10:00 19,1 C 13,1 C 47 % 66 % 1011,3 hPa 0,0 l/m 4,1 km/h (1 Bft)
08.04.2009 11:00 19,5 C 15,1 C 46 % 54 % 1011,3 hPa 0,0 l/m 7,1 km/h (2 Bft)
08.04.2009 12:00 19,5 C 15,8 C 44 % 47 % 1010,4 hPa 0,0 l/m 7,3 km/h (2 Bft)
08.04.2009 13:00 19,3 C 15,2 C 43 % 47 % 1010,6 hPa 0,0 l/m 6,2 km/h (2 Bft)
08.04.2009 14:00 19,2 C 14,2 C 44 % 52 % 1011,1 hPa 0,0 l/m 3,0 km/h (1 Bft)
08.04.2009 15:00 19,2 C 13,9 C 45 % 56 % 1011,3 hPa 0,0 l/m 4,2 km/h (1 Bft)
08.04.2009 16:00 19,2 C 13,7 C 45 % 61 % 1011,4 hPa 0,0 l/m 6,0 km/h (2 Bft)
08.04.2009 17:00 19,2 C 12,4 C 48 % 71 % 1012,0 hPa 0,0 l/m 1,8 km/h (1 Bft)
08.04.2009 18:00 19,2 C 12,2 C 49 % 73 % 1012,4 hPa 0,0 l/m 1,1 km/h (0 Bft)
08.04.2009 19:00 19,2 C 12,2 C 49 % 74 % 1012,4 hPa 0,0 l/m 1,6 km/h (1 Bft)
08.04.2009 20:00 19,1 C 11,6 C 50 % 77 % 1013,1 hPa 1,0 l/m 0,2 km/h (0 Bft)
08.04.2009 21:00 19,1 C 10,9 C 51 % 82 % 1013,4 hPa 0,0 l/m 0,7 km/h (0 Bft)
08.04.2009 22:00 19,4 C 11,0 C 51 % 83 % 1013,4 hPa 0,0 l/m 0,6 km/h (0 Bft)
08.04.2009 23:00 19,4 C 11,0 C 51 % 82 % 1013,9 hPa 0,0 l/m 0,0 km/h (0 Bft)
09.04.2009 00:00 19,3 C 10,9 C 51 % 82 % 1014,4 hPa 0,0 l/m 0,0 km/h (0 Bft)
09.04.2009 01:00 19,2 C 11,1 C 52 % 83 % 1014,4 hPa 0,0 l/m 0,0 km/h (0 Bft)
09.04.2009 02:00 19,1 C 11,0 C 53 % 84 % 1014,4 hPa 0,5 l/m 0,0 km/h (0 Bft)
09.04.2009 03:00 19,1 C 10,8 C 53 % 84 % 1014,4 hPa 0,0 l/m 0,0 km/h (0 Bft)
09.04.2009 04:00 19,0 C 10,8 C 53 % 84 % 1014,4 hPa 0,0 l/m 0,0 km/h (0 Bft)
09.04.2009 05:00 19,0 C 10,9 C 54 % 85 % 1014,4 hPa 0,0 l/m 0,0 km/h (0 Bft)
09.04.2009 06:00 19,0 C 11,0 C 56 % 85 % 1014,4 hPa 0,0 l/m 0,0 km/h (0 Bft)
09.04.2009 07:00 19,0 C 11,1 C 57 % 86 % 1014,8 hPa 0,0 l/m 0,0 km/h (0 Bft)
09.04.2009 08:00 19,0 C 11,4 C 57 % 86 % 1015,4 hPa 0,0 l/m 0,0 km/h (0 Bft)
09.04.2009 09:00 19,0 C 12,3 C 57 % 87 % 1015,4 hPa 0,0 l/m 0,0 km/h (0 Bft)
09.04.2009 10:00 19,0 C 13,8 C 56 % 85 % 1015,3 hPa 0,0 l/m 0,0 km/h (0 Bft)
09.04.2009 11:00 19,1 C 15,6 C 56 % 77 % 1015,3 hPa 0,0 l/m 0,5 km/h (0 Bft)
09.04.2009 12:00 19,2 C 17,4 C 55 % 68 % 1015,3 hPa 0,0 l/m 2,5 km/h (1 Bft)
09.04.2009 13:00 19,3 C 18,3 C 55 % 62 % 1014,5 hPa 0,0 l/m 3,9 km/h (1 Bft)
09.04.2009 14:00 19,5 C 18,5 C 54 % 62 % 1014,3 hPa 0,0 l/m 2,7 km/h (1 Bft)
09.04.2009 15:00 19,6 C 18,7 C 54 % 61 % 1014,1 hPa 0,0 l/m 0,8 km/h (0 Bft)
09.04.2009 16:00 19,7 C 18,8 C 53 % 61 % 1013,3 hPa 0,0 l/m 4,0 km/h (1 Bft)
09.04.2009 17:00 19,9 C 19,3 C 53 % 59 % 1012,4 hPa 0,0 l/m 1,6 km/h (1 Bft)
09.04.2009 18:00 20,0 C 18,7 C 53 % 60 % 1012,3 hPa 0,0 l/m 0,0 km/h (0 Bft)
09.04.2009 19:00 20,2 C 18,0 C 53 % 61 % 1012,3 hPa 0,0 l/m 0,0 km/h (0 Bft)
09.04.2009 20:00 20,7 C 16,6 C 54 % 64 % 1012,3 hPa 0,0 l/m 0,0 km/h (0 Bft)
09.04.2009 21:00 20,5 C 14,8 C 53 % 67 % 1012,3 hPa 0,0 l/m 0,0 km/h (0 Bft)
09.04.2009 22:00 20,4 C 13,3 C 54 % 71 % 1012,3 hPa 0,0 l/m 0,0 km/h (0 Bft)
09.04.2009 23:00 20,4 C 11,9 C 57 % 74 % 1011,4 hPa 0,0 l/m 0,0 km/h (0 Bft)
10.04.2009 00:00 20,3 C 10,7 C 56 % 76 % 1011,4 hPa 0,0 l/m 0,0 km/h (0 Bft)
10.04.2009 01:00 20,1 C 10,3 C 55 % 78 % 1011,4 hPa 0,0 l/m 0,0 km/h (0 Bft)
10.04.2009 02:00 20,0 C 10,7 C 54 % 80 % 1010,5 hPa 0,0 l/m 0,1 km/h (0 Bft)
10.04.2009 03:00 20,0 C 11,4 C 54 % 80 % 1010,4 hPa 0,0 l/m 0,0 km/h (0 Bft)
10.04.2009 04:00 19,9 C 11,9 C 54 % 79 % 1010,0 hPa 0,0 l/m 0,0 km/h (0 Bft)
10.04.2009 05:00 19,8 C 12,1 C 54 % 78 % 1009,3 hPa 0,0 l/m 0,0 km/h (0 Bft)
10.04.2009 06:00 19,7 C 11,8 C 54 % 78 % 1009,3 hPa 0,0 l/m 0,0 km/h (0 Bft)
10.04.2009 07:00 19,7 C 11,8 C 53 % 79 % 1009,3 hPa 0,0 l/m 0,0 km/h (0 Bft)
10.04.2009 08:00 19,6 C 12,5 C 53 % 78 % 1009,3 hPa 0,0 l/m 0,0 km/h (0 Bft)
10.04.2009 09:00 19,6 C 13,8 C 53 % 76 % 1009,3 hPa 0,0 l/m 0,1 km/h (0 Bft)
10.04.2009 10:00 19,6 C 15,5 C 53 % 73 % 1009,2 hPa 0,0 l/m 1,3 km/h (1 Bft)
10.04.2009 11:00 19,7 C 17,6 C 53 % 67 % 1008,8 hPa 0,0 l/m 1,1 km/h (1 Bft)
10.04.2009 12:00 19,8 C 18,6 C 53 % 64 % 1008,2 hPa 0,0 l/m 1,9 km/h (1 Bft)
10.04.2009 13:00 19,9 C 20,7 C 53 % 59 % 1007,2 hPa 0,0 l/m 1,6 km/h (1 Bft)
10.04.2009 14:00 20,0 C 24,1 C 53 % 47 % 1006,5 hPa 0,0 l/m 0,3 km/h (0 Bft)
10.04.2009 15:00 20,3 C 25,8 C 52 % 41 % 1005,5 hPa 0,0 l/m 0,6 km/h (0 Bft)
10.04.2009 16:00 20,8 C 26,2 C 51 % 38 % 1004,6 hPa 0,0 l/m 1,1 km/h (1 Bft)
10.04.2009 17:00 20,9 C 25,8 C 50 % 37 % 1004,1 hPa 0,0 l/m 1,9 km/h (1 Bft)
10.04.2009 18:00 20,9 C 24,5 C 50 % 38 % 1004,1 hPa 0,0 l/m 6,9 km/h (2 Bft)
10.04.2009 19:00 21,0 C 23,1 C 51 % 41 % 1004,2 hPa 0,0 l/m 2,2 km/h (1 Bft)
10.04.2009 20:00 21,0 C 20,8 C 51 % 45 % 1004,2 hPa 0,0 l/m 0,0 km/h (0 Bft)
10.04.2009 21:00 21,0 C 18,7 C 50 % 48 % 1004,9 hPa 0,0 l/m 0,0 km/h (0 Bft)
10.04.2009 22:00 21,0 C 17,5 C 50 % 51 % 1005,2 hPa 0,0 l/m 0,0 km/h (0 Bft)
10.04.2009 23:00 21,0 C 16,0 C 50 % 55 % 1005,3 hPa 0,0 l/m 0,0 km/h (0 Bft)
11.04.2009 00:00 20,9 C 14,7 C 50 % 59 % 1006,0 hPa 0,0 l/m 0,0 km/h (0 Bft)
11.04.2009 01:00 20,9 C 15,4 C 50 % 59 % 1006,3 hPa 0,0 l/m 0,0 km/h (0 Bft)
11.04.2009 02:00 20,8 C 14,0 C 50 % 62 % 1006,3 hPa 0,0 l/m 0,0 km/h (0 Bft)
11.04.2009 03:00 20,6 C 12,4 C 50 % 66 % 1006,3 hPa 0,0 l/m 0,0 km/h (0 Bft)
11.04.2009 04:00 20,6 C 11,6 C 50 % 69 % 1007,1 hPa 0,0 l/m 0,0 km/h (0 Bft)
11.04.2009 05:00 20,5 C 11,0 C 50 % 72 % 1007,4 hPa 0,0 l/m 0,0 km/h (0 Bft)
11.04.2009 06:00 20,4 C 10,1 C 50 % 74 % 1007,4 hPa 0,0 l/m 0,0 km/h (0 Bft)
11.04.2009 07:00 20,3 C 9,5 C 50 % 76 % 1007,7 hPa 0,0 l/m 0,0 km/h (0 Bft)
11.04.2009 08:00 20,2 C 10,3 C 50 % 78 % 1008,4 hPa 0,0 l/m 0,0 km/h (0 Bft)
11.04.2009 09:00 20,1 C 12,5 C 50 % 77 % 1008,3 hPa 0,0 l/m 0,0 km/h (0 Bft)
11.04.2009 10:00 20,1 C 15,9 C 51 % 69 % 1008,3 hPa 0,0 l/m 1,6 km/h (1 Bft)
11.04.2009 11:00 20,1 C 18,4 C 51 % 59 % 1008,2 hPa 0,0 l/m 5,1 km/h (1 Bft)
11.04.2009 12:00 20,1 C 20,8 C 51 % 51 % 1008,2 hPa 0,0 l/m 0,2 km/h (0 Bft)
11.04.2009 13:00 20,2 C 22,4 C 50 % 46 % 1008,2 hPa 0,0 l/m 0,3 km/h (0 Bft)
11.04.2009 14:00 20,4 C 23,4 C 50 % 43 % 1008,2 hPa 0,0 l/m 1,3 km/h (1 Bft)
11.04.2009 15:00 20,5 C 23,2 C 49 % 40 % 1008,2 hPa 0,0 l/m 4,6 km/h (1 Bft)
11.04.2009 16:00 20,7 C 22,8 C 49 % 41 % 1007,9 hPa 0,0 l/m 3,3 km/h (1 Bft)
11.04.2009 17:00 20,9 C 22,8 C 48 % 41 % 1007,7 hPa 0,0 l/m 3,1 km/h (1 Bft)
11.04.2009 18:00 20,9 C 22,0 C 48 % 43 % 1007,6 hPa 0,0 l/m 2,2 km/h (1 Bft)
11.04.2009 19:00 20,9 C 20,8 C 48 % 45 % 1007,9 hPa 0,0 l/m 0,3 km/h (0 Bft)
11.04.2009 20:00 20,9 C 19,6 C 48 % 49 % 1008,2 hPa 0,0 l/m 0,0 km/h (0 Bft)
11.04.2009 21:00 20,9 C 17,8 C 48 % 59 % 1009,0 hPa 2,1 l/m 0,3 km/h (0 Bft)
11.04.2009 22:00 20,9 C 14,8 C 50 % 68 % 1008,5 hPa 9,8 l/m 1,5 km/h (1 Bft)
11.04.2009 23:00 20,8 C 13,4 C 50 % 74 % 1008,3 hPa 0,0 l/m 0,2 km/h (0 Bft)
12.04.2009 00:00 20,7 C 14,1 C 51 % 75 % 1008,3 hPa 0,0 l/m 0,1 km/h (0 Bft)
12.04.2009 01:00 20,7 C 13,5 C 52 % 76 % 1008,3 hPa 0,0 l/m 0,0 km/h (0 Bft)
12.04.2009 02:00 20,6 C 13,8 C 51 % 74 % 1008,3 hPa 0,0 l/m 0,0 km/h (0 Bft)
12.04.2009 03:00 20,5 C 12,8 C 51 % 75 % 1008,3 hPa 0,0 l/m 0,0 km/h (0 Bft)
12.04.2009 04:00 20,4 C 11,8 C 51 % 77 % 1008,3 hPa 0,0 l/m 0,0 km/h (0 Bft)
12.04.2009 05:00 20,3 C 10,8 C 52 % 78 % 1008,4 hPa 0,0 l/m 0,0 km/h (0 Bft)
12.04.2009 06:00 20,2 C 9,9 C 52 % 79 % 1008,4 hPa 0,0 l/m 0,0 km/h (0 Bft)
12.04.2009 07:00 20,0 C 10,0 C 52 % 81 % 1009,1 hPa 0,0 l/m 0,0 km/h (0 Bft)
12.04.2009 08:00 20,0 C 10,7 C 52 % 82 % 1009,4 hPa 0,0 l/m 0,0 km/h (0 Bft)
12.04.2009 09:00 19,9 C 12,2 C 53 % 83 % 1009,3 hPa 0,0 l/m 0,0 km/h (0 Bft)
12.04.2009 10:00 19,9 C 13,6 C 53 % 82 % 1009,3 hPa 0,0 l/m 0,0 km/h (0 Bft)
12.04.2009 11:00 19,9 C 14,9 C 54 % 80 % 1009,5 hPa 0,0 l/m 0,0 km/h (0 Bft)
12.04.2009 12:00 20,0 C 16,8 C 54 % 75 % 1009,3 hPa 0,0 l/m 0,9 km/h (0 Bft)
12.04.2009 13:00 20,0 C 17,7 C 54 % 72 % 1009,3 hPa 0,0 l/m 1,3 km/h (1 Bft)
12.04.2009 14:00 20,1 C 18,7 C 54 % 70 % 1009,2 hPa 0,0 l/m 3,0 km/h (1 Bft)
12.04.2009 15:00 20,2 C 19,0 C 54 % 68 % 1009,2 hPa 0,0 l/m 1,3 km/h (1 Bft)
12.04.2009 16:00 20,2 C 18,9 C 54 % 68 % 1009,2 hPa 0,0 l/m 0,5 km/h (0 Bft)
12.04.2009 17:00 20,3 C 18,9 C 54 % 68 % 1009,2 hPa 0,0 l/m 0,1 km/h (0 Bft)
12.04.2009 18:00 20,3 C 18,4 C 54 % 70 % 1009,2 hPa 0,0 l/m 0,0 km/h (0 Bft)
12.04.2009 19:00 20,4 C 17,5 C 54 % 73 % 1009,3 hPa 0,0 l/m 0,0 km/h (0 Bft)
12.04.2009 20:00 20,4 C 16,2 C 54 % 75 % 1009,6 hPa 0,0 l/m 0,0 km/h (0 Bft)
12.04.2009 21:00 20,4 C 14,9 C 55 % 77 % 1010,3 hPa 0,0 l/m 0,0 km/h (0 Bft)
12.04.2009 22:00 20,3 C 13,8 C 55 % 79 % 1010,3 hPa 0,0 l/m 0,0 km/h (0 Bft)
12.04.2009 23:00 20,3 C 12,8 C 55 % 81 % 1009,3 hPa 0,0 l/m 0,0 km/h (0 Bft)
Min-Datum _ 06.04.09 06.04.09 08.04.09 10.04.09 10.04.09 - 06.04.09
_ Min-Zeit 06:50 07:42 13:02 17:00 16:30 - 00:00
Minimum _ 18,9 C 5,1 C 43 % 36 % 1004,1 hPa - 0,0 km/h (0 Bft)
Max-Datum _ 10.04.09 10.04.09 09.04.09 09.04.09 06.04.09 11.04.09 10.04.09
_ Max-Zeit 16:40 16:54 07:04 09:02 00:00 22:00 18:24
Maximum _ 21,0 C 26,5 C 57 % 87 % 1020,4 hPa 9,8 l/m 51,7 km/h
O-SO (7 Bft)
Durchschnitt _ 19,9 C 14,4 C 51 % 69 % 1010,4 hPa #13,5 l/m 0,9 km/h (0 Bft)
© 2012 W. Hausmann